Time;durP1;ratioP1;P1;durP2;ratioP2;P2;SDS_P1;SDS_P2;PMS_P1;PMS_P2;Temp;Humidity;BMP_temperature;BMP_pressure;BME280_temperature;BME280_humidity;BME280_pressure;Samples;Min_cycle;Max_cycle;Signal;HPM_P1;HPM_P2
2023/10/04 00:00:44;;;;;;;;;;;;;;;12.09;100.00;102362.81;5086943;28;1258;-74
2023/10/04 00:03:09;;;;;;;;;;;;;;;12.11;100.00;102363.56;5085194;28;1175;-74
2023/10/04 00:05:36;;;;;;;;;;;;;;;12.11;100.00;102366.16;5083576;28;1362;-73
2023/10/04 00:08:02;;;;;;;;;;;;;;;12.09;100.00;102362.81;5083523;28;1010;-74
2023/10/04 00:10:27;;;;;;;;;;;;;;;12.06;100.00;102368.22;5080617;28;1195;-73
2023/10/04 00:12:53;;;;;;;;;;;;;;;12.04;100.00;102364.88;5080552;28;1267;-74
2023/10/04 00:15:20;;;;;;;;;;;;;;;12.02;100.00;102379.75;5081209;28;1894;-74
2023/10/04 00:17:45;;;;;;;;;;;;;;;12.00;100.00;102378.19;5086819;28;1299;-75
2023/10/04 00:20:14;;;;;;;;;;;;;;;12.00;100.00;102384.22;5084558;28;1131;-74
2023/10/04 00:22:40;;;;;;;;;;;;;;;11.98;100.00;102380.84;5089690;28;1145;-75
2023/10/04 00:25:11;;;;;;;;;;;;;;;11.98;100.00;102375.66;5097678;28;1083;-73
2023/10/04 00:27:38;;;;;;;;;;;;;;;11.95;100.00;102373.25;5092371;28;1137;-74
2023/10/04 00:30:05;;;;;;;;;;;;;;;11.93;100.00;102377.72;5093922;28;1112;-73
2023/10/04 00:32:31;;;;;;;;;;;;;;;11.92;100.00;102381.25;5096698;28;1498;-74
2023/10/04 00:34:56;;;;;;;;;;;;;;;11.91;100.00;102379.56;5097076;28;1969;-73
2023/10/04 00:37:21;;;;;;;;;;;;;;;11.88;100.00;102382.38;5087902;28;1162;-74
2023/10/04 00:39:46;;;;;;;;;;;;;;;11.86;100.00;102384.22;5089737;28;1097;-75
2023/10/04 00:42:13;;;;;;;;;;;;;;;11.85;100.00;102390.34;5088034;28;1090;-73
2023/10/04 00:44:38;;;;;;;;;;;;;;;11.82;100.00;102393.16;5091033;28;1179;-74
2023/10/04 00:47:05;;;;;;;;;;;;;;;11.81;100.00;102391.44;5092748;28;1213;-74
2023/10/04 00:49:32;;;;;;;;;;;;;;;11.80;100.00;102393.19;5089687;28;1223;-73
2023/10/04 00:51:58;;;;;;;;;;;;;;;11.80;100.00;102387.16;5090418;28;1090;-74
2023/10/04 00:54:24;;;;;;;;;;;;;;;11.81;100.00;102388.84;5092168;28;1913;-74
2023/10/04 00:56:51;;;;;;;;;;;;;;;11.80;100.00;102389.78;5087833;28;1288;-76
2023/10/04 00:59:17;;;;;;;;;;;;;;;11.78;100.00;102395.06;5091277;28;968;-73
2023/10/04 01:01:42;;;;;;;;;;;;;;;11.78;100.00;102404.63;5090500;28;1199;-74
2023/10/04 01:04:07;;;;;;;;;;;;;;;11.78;100.00;102399.44;5087549;28;1135;-74
2023/10/04 01:06:35;;;;;;;;;;;;;;;11.79;100.00;102406.31;5085877;28;1071;-75
2023/10/04 01:09:01;;;;;;;;;;;;;;;11.79;100.00;102403.72;5071982;22;1469;-74
2023/10/04 01:11:26;;;;;;;;;;;;;;;11.80;100.00;102400.16;5045372;28;1220;-74
2023/10/04 01:14:01;;;;;;;;;;;;;;;11.78;100.00;102405.47;5040136;28;1296;-74
2023/10/04 01:16:26;;;;;;;;;;;;;;;11.75;100.00;102410.00;5040930;28;1906;-74
2023/10/04 01:18:51;;;;;;;;;;;;;;;11.76;100.00;102414.31;5048375;28;1290;-74
2023/10/04 01:21:17;;;;;;;;;;;;;;;11.75;100.00;102416.03;5053110;28;1138;-75
2023/10/04 01:23:42;;;;;;;;;;;;;;;11.76;100.00;102403.91;5053967;28;1262;-73
2023/10/04 01:26:09;;;;;;;;;;;;;;;11.73;100.00;102404.09;5053142;28;1095;-74
2023/10/04 01:28:34;;;;;;;;;;;;;;;11.73;100.00;102411.88;5033869;28;1532;-74
2023/10/04 01:31:00;;;;;;;;;;;;;;;11.72;100.00;102421.44;5046494;28;1124;-73
2023/10/04 01:33:25;;;;;;;;;;;;;;;11.72;100.00;102415.41;5037845;28;1450;-74
2023/10/04 01:35:54;;;;;;;;;;;;;;;11.69;100.00;102412.06;5032679;28;1886;-75
2023/10/04 01:38:25;;;;;;;;;;;;;;;11.67;100.00;102418.28;5044145;28;1146;-73
2023/10/04 01:40:51;;;;;;;;;;;;;;;11.65;100.00;102410.59;5044302;28;1149;-75
2023/10/04 01:43:16;;;;;;;;;;;;;;;11.66;100.00;102414.03;5042169;28;1112;-74
2023/10/04 01:45:43;;;;;;;;;;;;;;;11.68;100.00;102415.59;5035718;28;1428;-75
2023/10/04 01:48:08;;;;;;;;;;;;;;;11.69;100.00;102425.03;5032784;28;1224;-75
2023/10/04 01:50:33;;;;;;;;;;;;;;;11.70;100.00;102424.16;5047678;28;1401;-74
2023/10/04 01:53:00;;;;;;;;;;;;;;;11.72;100.00;102426.66;5043990;28;1182;-73
2023/10/04 01:55:26;;;;;;;;;;;;;;;11.73;100.00;102425.72;5049986;28;1898;-76
2023/10/04 01:57:52;;;;;;;;;;;;;;;11.73;100.00;102422.28;5033302;28;1204;-74
2023/10/04 02:00:20;;;;;;;;;;;;;;;11.74;100.00;102416.16;5038613;28;1257;-77
2023/10/04 02:02:46;;;;;;;;;;;;;;;11.74;100.00;102413.53;5034400;28;1169;-77
2023/10/04 02:05:16;;;;;;;;;;;;;;;11.74;100.00;102410.94;5039948;28;1192;-77
2023/10/04 02:07:43;;;;;;;;;;;;;;;11.73;100.00;102412.72;5043998;28;1312;-74
2023/10/04 02:10:09;;;;;;;;;;;;;;;11.74;100.00;102416.16;5047527;28;1118;-74
2023/10/04 02:12:34;;;;;;;;;;;;;;;11.73;100.00;102412.72;5030697;28;1523;-74
2023/10/04 02:14:59;;;;;;;;;;;;;;;11.74;100.00;102405.75;5026878;28;1939;-73
2023/10/04 02:17:25;;;;;;;;;;;;;;;11.76;100.00;102401.31;5039144;28;1185;-73
2023/10/04 02:19:53;;;;;;;;;;;;;;;11.77;100.00;102403.81;5047360;28;1415;-73
2023/10/04 02:22:19;;;;;;;;;;;;;;;11.78;100.00;102408.06;5020185;28;1231;-75
2023/10/04 02:24:44;;;;;;;;;;;;;;;11.80;100.00;102410.56;5042172;28;1177;-74
2023/10/04 02:27:11;;;;;;;;;;;;;;;11.82;100.00;102406.16;5027141;28;1192;-73
2023/10/04 02:29:38;;;;;;;;;;;;;;;11.81;100.00;102409.63;5030952;28;1428;-75
2023/10/04 02:32:08;;;;;;;;;;;;;;;11.80;100.00;102407.97;5055390;28;1022;-74
2023/10/04 02:34:35;;;;;;;;;;;;;;;11.81;100.00;102425.22;5043875;28;1997;-75
2023/10/04 02:37:00;;;;;;;;;;;;;;;11.81;100.00;102414.84;5049642;28;1431;-74
2023/10/04 02:39:25;;;;;;;;;;;;;;;11.82;100.00;102422.59;5037103;28;1272;-73
2023/10/04 02:41:51;;;;;;;;;;;;;;;11.80;100.00;102419.19;5051477;28;1164;-73
2023/10/04 02:44:17;;;;;;;;;;;;;;;11.81;100.00;102425.22;5033538;28;1217;-74
2023/10/04 02:46:44;;;;;;;;;;;;;;;11.80;100.00;102416.59;5028158;28;1009;-77
2023/10/04 02:49:10;;;;;;;;;;;;;;;11.81;100.00;102414.84;5040906;28;2234;-74
2023/10/04 02:51:35;;;;;;;;;;;;;;;11.81;100.00;102420.03;5034584;28;1216;-74
2023/10/04 02:54:02;;;;;;;;;;;;;;;11.80;100.00;102413.16;5025167;28;1210;-74
2023/10/04 02:56:27;;;;;;;;;;;;;;;11.81;100.00;102410.50;5043558;28;1894;-74
2023/10/04 02:58:52;;;;;;;;;;;;;;;11.81;100.00;102418.28;5045274;28;1066;-76
2023/10/04 03:01:20;;;;;;;;;;;;;;;11.82;100.00;102419.16;5044362;28;1249;-75
2023/10/04 03:03:46;;;;;;;;;;;;;;;11.80;100.00;102413.16;5044832;28;1153;-73
2023/10/04 03:06:11;;;;;;;;;;;;;;;11.80;100.00;102419.19;5045651;28;1158;-74
2023/10/04 03:08:37;;;;;;;;;;;;;;;11.79;100.00;102422.72;5046108;28;1259;-75
2023/10/04 03:11:03;;;;;;;;;;;;;;;11.77;100.00;102423.78;5045646;28;1184;-73
2023/10/04 03:13:32;;;;;;;;;;;;;;;11.78;100.00;102430.63;5033140;28;1332;-73
2023/10/04 03:15:58;;;;;;;;;;;;;;;11.78;100.00;102435.84;5040932;28;1969;-74
2023/10/04 03:18:25;;;;;;;;;;;;;;;11.75;100.00;102430.81;5045540;28;1163;-73
2023/10/04 03:23:28;;;;;;;;;;;;;;;11.70;100.00;102434.53;5041907;28;1257;-74
2023/10/04 03:25:56;;;;;;;;;;;;;;;11.66;100.00;102447.81;5028650;28;1179;-74
2023/10/04 03:28:26;;;;;;;;;;;;;;;11.66;100.00;102437.41;5037023;28;1181;-75
2023/10/04 03:30:52;;;;;;;;;;;;;;;11.63;100.00;102442.78;5044743;28;1225;-74
2023/10/04 03:33:17;;;;;;;;;;;;;;;11.63;100.00;102438.41;5045694;28;1190;-73
2023/10/04 03:35:44;;;;;;;;;;;;;;;11.62;100.00;102447.16;5051268;28;1957;-75
2023/10/04 03:38:09;;;;;;;;;;;;;;;11.60;100.00;102438.63;5045816;28;1128;-74
2023/10/04 03:40:35;;;;;;;;;;;;;;;11.58;100.00;102434.41;5049727;28;1415;-73
2023/10/04 03:43:07;;;;;;;;;;;;;;;11.56;100.00;102426.72;5047336;28;1220;-75
2023/10/04 03:45:35;;;;;;;;;;;;;;;11.54;100.00;102433.78;5050424;28;1070;-75
2023/10/04 03:48:01;;;;;;;;;;;;;;;11.52;100.00;102440.81;5040322;28;1624;-74
2023/10/04 03:50:27;;;;;;;;;;;;;;;11.51;100.00;102444.34;5043731;28;1282;-75
2023/10/04 03:52:53;;;;;;;;;;;;;;;11.50;100.00;102436.66;5032503;28;1205;-75
2023/10/04 03:55:18;;;;;;;;;;;;;;;11.49;100.00;102430.63;5033140;28;1909;-73
2023/10/04 03:57:44;;;;;;;;;;;;;;;11.46;100.00;102430.78;5048434;28;1165;-77
2023/10/04 04:00:15;;;;;;;;;;;;;;;11.44;100.00;102430.06;5030897;28;1233;-73
2023/10/04 04:02:41;;;;;;;;;;;;;;;11.41;100.00;102438.88;5041349;28;1142;-73
2023/10/04 04:05:09;;;;;;;;;;;;;;;11.40;100.00;102441.56;5035067;28;1255;-74
2023/10/04 04:07:34;;;;;;;;;;;;;;;11.35;100.00;102434.03;5027798;28;1216;-74
2023/10/04 04:10:03;;;;;;;;;;;;;;;11.38;100.00;102444.25;5052762;28;1528;-73
2023/10/04 04:12:29;;;;;;;;;;;;;;;11.36;100.00;102434.91;5043056;28;1544;-75
2023/10/04 04:14:54;;;;;;;;;;;;;;;11.37;100.00;102439.16;5053076;28;1894;-73
2023/10/04 04:17:22;;;;;;;;;;;;;;;11.34;100.00;102434.13;5032702;28;1560;-73
2023/10/04 04:19:49;;;;;;;;;;;;;;;11.35;100.00;102444.41;5048157;28;1425;-74
2023/10/04 04:22:17;;;;;;;;;;;;;;;11.35;100.00;102438.38;5050051;28;1181;-73
2023/10/04 04:24:42;;;;;;;;;;;;;;;11.33;100.00;102435.06;5032101;28;1488;-72
2023/10/04 04:27:08;;;;;;;;;;;;;;;11.30;100.00;102432.66;5048289;28;1316;-74
2023/10/04 04:29:33;;;;;;;;;;;;;;;11.31;100.00;102436.91;5049395;28;1233;-73
2023/10/04 04:32:01;;;;;;;;;;;;;;;11.29;100.00;102428.38;5047734;28;1193;-74
2023/10/04 04:34:28;;;;;;;;;;;;;;;11.26;100.00;102425.97;5047979;28;1282;-74
2023/10/04 04:36:55;;;;;;;;;;;;;;;11.23;100.00;102428.72;5050539;28;1902;-74
2023/10/04 04:39:21;;;;;;;;;;;;;;;11.24;100.00;102425.19;5051360;28;1068;-73
2023/10/04 04:41:49;;;;;;;;;;;;;;;11.21;100.00;102421.03;5053034;28;1235;-75
2023/10/04 04:44:20;;;;;;;;;;;;;;;11.21;100.00;102425.41;5047888;28;949;-76
2023/10/04 04:46:47;;;;;;;;;;;;;;;11.22;100.00;102424.47;5029417;28;1295;-74
2023/10/04 04:49:12;;;;;;;;;;;;;;;11.21;100.00;102417.59;5039632;28;1055;-74
2023/10/04 04:51:38;;;;;;;;;;;;;;;11.25;100.00;102416.50;5047699;28;1131;-74
2023/10/04 04:54:03;;;;;;;;;;;;;;;11.25;100.00;102406.13;5055607;28;1208;-74
2023/10/04 04:56:28;;;;;;;;;;;;;;;11.26;100.00;102416.41;5051592;28;1910;-74
2023/10/04 04:58:56;;;;;;;;;;;;;;;11.22;100.00;102416.66;5042245;28;1338;-74
2023/10/04 05:01:21;;;;;;;;;;;;;;;11.19;100.00;102427.25;5035348;28;1306;-74
2023/10/04 05:03:46;;;;;;;;;;;;;;;11.15;100.00;102422.22;5042637;28;1295;-74
2023/10/04 05:06:25;;;;;;;;;;;;;;;11.14;100.00;102430.94;5057707;28;1152;-76
2023/10/04 05:08:57;;;;;;;;;;;;;;;11.12;100.00;102443.16;5056839;28;1209;-73
2023/10/04 05:11:24;;;;;;;;;;;;;;;11.10;100.00;102455.41;5060628;28;1031;-74
2023/10/04 05:13:50;;;;;;;;;;;;;;;11.09;100.00;102463.31;5046554;28;1086;-74
2023/10/04 05:16:16;;;;;;;;;;;;;;;11.08;100.00;102467.66;5049373;28;1901;-74
2023/10/04 05:18:41;;;;;;;;;;;;;;;11.10;100.00;102475.34;5051573;28;1179;-75
2023/10/04 05:21:07;;;;;;;;;;;;;;;11.05;100.00;102478.22;5046599;28;1193;-75
2023/10/04 05:23:34;;;;;;;;;;;;;;;11.04;100.00;102478.31;5028823;28;1412;-74
2023/10/04 05:25:59;;;;;;;;;;;;;;;11.00;100.00;102469.84;5047616;28;1225;-73
2023/10/04 05:28:25;;;;;;;;;;;;;;;10.98;100.00;102469.09;5052611;28;1103;-74
2023/10/04 05:30:51;;;;;;;;;;;;;;;10.96;100.00;102478.75;5045306;28;1481;-75
2023/10/04 05:33:17;;;;;;;;;;;;;;;10.95;100.00;102466.66;5050874;28;1125;-74
2023/10/04 05:35:44;;;;;;;;;;;;;;;10.93;100.00;102463.34;5046340;28;1890;-75
2023/10/04 05:38:14;;;;;;;;;;;;;;;10.92;100.00;102469.44;5049499;28;1078;-75
2023/10/04 05:40:43;;;;;;;;;;;;;;;10.90;100.00;102468.72;5041563;28;1125;-74
2023/10/04 05:43:09;;;;;;;;;;;;;;;10.88;100.00;102486.13;5045368;28;1098;-74
2023/10/04 05:45:34;;;;;;;;;;;;;;;10.85;100.00;102487.13;5025078;28;1284;-76
2023/10/04 05:47:59;;;;;;;;;;;;;;;10.84;100.00;102497.63;5047173;28;1778;-75
2023/10/04 05:50:25;;;;;;;;;;;;;;;10.82;100.00;102502.03;5029358;28;1184;-75
2023/10/04 05:52:51;;;;;;;;;;;;;;;10.81;100.00;102502.97;5030373;28;1381;-74
2023/10/04 05:55:17;;;;;;;;;;;;;;;10.77;100.00;102498.84;5046429;28;1890;-75
2023/10/04 05:57:44;;;;;;;;;;;;;;;10.76;100.00;102499.78;5048023;28;1169;-75
2023/10/04 06:00:22;;;;;;;;;;;;;;;10.76;100.00;102499.78;5050594;28;1162;-74
2023/10/04 06:02:48;;;;;;;;;;;;;;;10.74;100.00;102515.44;5038872;28;1134;-74
2023/10/04 06:05:14;;;;;;;;;;;;;;;10.75;100.00;102505.91;5043901;28;1198;-74
2023/10/04 06:07:39;;;;;;;;;;;;;;;10.74;100.00;102515.44;5051245;28;1172;-74
2023/10/04 06:10:04;;;;;;;;;;;;;;;10.77;100.00;102504.06;5047095;28;1280;-76
2023/10/04 06:12:30;;;;;;;;;;;;;;;10.78;100.00;102500.53;5047044;28;1131;-76
2023/10/04 06:14:55;;;;;;;;;;;;;;;10.81;100.00;102521.13;5044251;28;1906;-75
2023/10/04 06:17:20;;;;;;;;;;;;;;;10.79;100.00;102512.59;5042461;28;1329;-74
2023/10/04 06:19:45;;;;;;;;;;;;;;;10.79;100.00;102517.78;5040746;28;1838;-75
2023/10/04 06:22:11;;;;;;;;;;;;;;;10.78;100.00;102523.88;5048466;28;1063;-75
2023/10/04 06:24:37;;;;;;;;;;;;;;;10.78;100.00;102523.88;5044749;28;1049;-74
2023/10/04 06:27:02;;;;;;;;;;;;;;;10.77;100.00;102519.63;5052063;28;988;-74
2023/10/04 06:29:27;;;;;;;;;;;;;;;10.79;100.00;102530.78;5050609;28;1268;-75
2023/10/04 06:31:53;;;;;;;;;;;;;;;10.81;100.00;102534.13;5030926;28;1435;-74
2023/10/04 06:34:18;;;;;;;;;;;;;;;10.83;100.00;102529.66;5043688;28;1070;-77
2023/10/04 06:36:44;;;;;;;;;;;;;;;10.83;100.00;102534.84;5049248;28;1901;-75
2023/10/04 06:39:12;;;;;;;;;;;;;;;10.85;100.00;102533.03;5041399;28;1104;-74
2023/10/04 06:41:37;;;;;;;;;;;;;;;10.88;100.00;102530.25;5044841;28;1057;-75
2023/10/04 06:44:02;;;;;;;;;;;;;;;10.89;100.00;102529.31;5045955;28;1453;-74
2023/10/04 06:46:27;;;;;;;;;;;;;;;10.94;100.00;102527.31;5043868;28;1135;-75
2023/10/04 06:48:52;;;;;;;;;;;;;;;10.96;100.00;102530.66;5046874;28;1092;-75
2023/10/04 06:51:17;;;;;;;;;;;;;;;10.98;100.00;102534.00;5039002;28;1082;-74
2023/10/04 06:53:43;;;;;;;;;;;;;;;11.00;100.00;102523.53;5030426;28;1450;-74
2023/10/04 06:56:09;;;;;;;;;;;;;;;11.03;100.00;102526.81;5043407;28;1894;-75
2023/10/04 06:58:34;;;;;;;;;;;;;;;11.05;100.00;102535.34;5049922;28;1011;-75
2023/10/04 07:01:00;;;;;;;;;;;;;;;11.11;100.00;102539.34;5030233;28;1640;-74
2023/10/04 07:03:27;;;;;;;;;;;;;;;11.13;100.00;102546.13;5043981;28;1174;-74
2023/10/04 07:05:52;;;;;;;;;;;;;;;11.16;100.00;102543.34;5039823;28;1082;-74
2023/10/04 07:08:17;;;;;;;;;;;;;;;11.21;100.00;102537.06;5039418;28;1143;-74
2023/10/04 07:10:44;;;;;;;;;;;;;;;11.24;100.00;102539.47;5038354;28;1271;-77
2023/10/04 07:13:09;;;;;;;;;;;;;;;11.30;100.00;102541.75;5036055;28;1135;-74
2023/10/04 07:15:35;;;;;;;;;;;;;;;11.33;100.00;102546.75;5029028;28;1902;-75
2023/10/04 07:18:01;;;;;;;;;;;;;;;11.38;100.00;102542.13;5033888;28;1338;-74
2023/10/04 07:20:26;;;;;;;;;;;;;;;11.44;100.00;102541.78;5027002;28;1190;-75
2023/10/04 07:22:59;;;;;;;;;;;;;;;11.48;100.00;102552.84;5029719;28;1315;-75
2023/10/04 07:25:27;;;;;;;;;;;;;;;11.53;100.00;102561.22;5045974;28;1224;-77
2023/10/04 07:27:53;;;;;;;;;;;;;;;11.57;100.00;102553.13;5046725;28;1115;-75
2023/10/04 07:30:19;;;;;;;;;;;;;;;11.63;100.00;102542.38;5051209;28;1086;-75
2023/10/04 07:32:45;;;;;;;;;;;;;;;11.67;100.00;102549.06;5041963;28;1216;-76
2023/10/04 07:35:12;;;;;;;;;;;;;;;11.73;100.00;102557.44;5034008;28;1898;-74
2023/10/04 07:37:39;;;;;;;;;;;;;;;11.80;100.00;102558.75;5045889;28;1152;-74
2023/10/04 07:40:09;;;;;;;;;;;;;;;11.86;100.00;102558.41;5047357;28;1159;-74
2023/10/04 07:42:34;;;;;;;;;;;;;;;11.92;100.00;102560.66;5036852;28;1479;-75
2023/10/04 07:45:00;;;;;;;;;;;;;;;11.96;100.00;102564.75;5049774;28;1172;-75
2023/10/04 07:47:25;;;;;;;;;;;;;;;12.00;100.00;102571.44;5046214;28;1248;-75
2023/10/04 07:49:50;;;;;;;;;;;;;;;12.08;100.00;102569.22;5043619;28;1094;-75
2023/10/04 07:52:15;;;;;;;;;;;;;;;12.13;100.00;102572.38;5046076;28;1254;-74
2023/10/04 07:54:41;;;;;;;;;;;;;;;12.21;100.00;102570.16;5046995;28;1956;-75
2023/10/04 07:57:06;;;;;;;;;;;;;;;12.28;100.00;102570.63;5046998;28;1427;-75
2023/10/04 07:59:31;;;;;;;;;;;;;;;12.38;100.00;102576.06;5042531;28;1323;-75
2023/10/04 08:01:56;;;;;;;;;;;;;;;12.43;100.00;102579.25;5039560;28;1180;-74
2023/10/04 08:04:22;;;;;;;;;;;;;;;12.49;100.00;102584.06;5040662;28;1189;-75
2023/10/04 08:06:52;;;;;;;;;;;;;;;12.56;100.00;102574.97;5039950;28;1269;-75
2023/10/04 08:09:17;;;;;;;;;;;;;;;12.63;100.00;102578.03;5035239;28;1141;-75
2023/10/04 08:11:42;;;;;;;;;;;;;;;12.70;100.00;102579.31;5044345;28;1033;-75
2023/10/04 08:14:07;;;;;;;;;;;;;;;12.76;100.00;102587.56;5038081;28;1132;-74
2023/10/04 08:16:33;;;;;;;;;;;;;;;12.81;100.00;102583.84;5042843;28;1985;-75
2023/10/04 08:18:59;;;;;;;;;;;;;;;12.87;100.00;102578.25;5027983;28;1346;-74
2023/10/04 08:21:24;;;;;;;;;;;;;;;12.93;100.00;102583.06;5039284;28;1239;-75
2023/10/04 08:23:50;;;;;;;;;;;;;;;13.00;100.00;102589.53;5028009;28;1355;-75
2023/10/04 08:26:15;;;;;;;;;;;;;;;13.06;100.00;102583.94;5043958;28;1184;-75
2023/10/04 08:28:42;;;;;;;;;;;;;;;13.12;100.00;102593.97;5038541;28;1202;-74
2023/10/04 08:31:11;;;;;;;;;;;;;;;13.19;100.00;102595.28;5047335;28;1102;-75
2023/10/04 08:33:37;;;;;;;;;;;;;;;13.27;100.00;102598.22;5045792;28;1097;-76
2023/10/04 08:36:08;;;;;;;;;;;;;;;13.29;100.00;102600.72;5049667;28;1890;-75
2023/10/04 08:38:34;;;;;;;;;;;;;;;13.35;100.00;102605.53;5049800;28;1196;-75
2023/10/04 08:40:59;;;;;;;;;;;;;;;13.42;100.00;102595.56;5030880;28;1364;-75
2023/10/04 08:43:24;;;;;;;;;;;;;;;13.52;100.00;102602.69;5050608;28;1319;-75
2023/10/04 08:45:50;;;;;;;;;;;;;;;13.47;100.00;102604.75;5048719;28;1159;-74
2023/10/04 08:48:15;;;;;;;;;;;;;;;13.53;100.00;102604.38;5056469;28;1519;-76
2023/10/04 08:51:08;;;;;;;;;;;;;;;13.58;100.00;102600.59;5043004;28;1049;-74
2023/10/04 08:53:44;;;;;;;;;;;;;;;13.63;100.00;102604.56;5011086;28;1295;-76
2023/10/04 08:56:11;;;;;;;;;;;;;;;13.66;100.00;102604.38;5055692;28;1955;-74
2023/10/04 08:58:38;;;;;;;;;;;;;;;13.68;100.00;102597.28;5035951;28;1321;-74
2023/10/04 09:01:06;;;;;;;;;;;;;;;13.69;100.00;102598.94;5052694;28;1261;-75
2023/10/04 09:03:33;;;;;;;;;;;;;;;13.72;100.00;102598.75;5051653;28;1186;-74
2023/10/04 09:05:59;;;;;;;;;;;;;;;13.74;100.00;102591.66;5051115;28;1249;-75
2023/10/04 09:08:25;;;;;;;;;;;;;;;13.81;100.00;102595.53;5034457;28;1232;-74
2023/10/04 09:10:53;;;;;;;;;;;;;;;13.90;100.00;102593.25;5048831;28;1072;-75
2023/10/04 09:13:18;;;;;;;;;;;;;;;13.94;100.00;102594.72;5054773;28;1180;-76
2023/10/04 09:15:43;;;;;;;;;;;;;;;14.01;100.00;102593.38;5051966;28;1906;-77
2023/10/04 09:18:09;;;;;;;;;;;;;;;14.06;100.00;102596.50;5054837;28;1152;-75
2023/10/04 09:20:36;;;;;;;;;;;;;;;14.09;100.00;102596.28;5049391;28;1193;-75
2023/10/04 09:23:13;;;;;;;;;;;;;;;14.16;100.00;102589.69;5043541;28;1331;-75
2023/10/04 09:25:45;;;;;;;;;;;;;;;14.21;100.00;102590.22;5043491;28;1238;-75
2023/10/04 09:28:11;;;;;;;;;;;;;;;14.25;100.00;102586.47;5048405;28;1161;-74
2023/10/04 09:30:36;;;;;;;;;;;;;;;14.29;100.00;102582.69;5048791;28;1510;-74
2023/10/04 09:33:20;;;;;;;;;;;;;;;14.30;100.00;102584.38;5051081;28;1134;-74
2023/10/04 09:35:45;;;;;;;;;;;;;;;14.36;100.00;102593.53;5050047;28;1898;-75
2023/10/04 09:38:15;;;;;;;;;;;;;;;14.38;100.00;102585.59;5048491;28;1158;-75
2023/10/04 09:40:48;;;;;;;;;;;;;;;14.41;100.00;102595.84;5052970;28;1210;-75
2023/10/04 09:43:14;;;;;;;;;;;;;;;14.39;100.00;102590.72;5037370;28;1372;-76
2023/10/04 09:45:54;;;;;;;;;;;;;;;14.43;100.00;102599.16;5048999;28;1193;-74
2023/10/04 09:48:19;;;;;;;;;;;;;;;14.45;100.00;102592.06;5052679;28;1222;-74
2023/10/04 09:50:45;;;;;;;;;;;;;;;14.48;100.00;102591.88;5043063;28;1310;-75
2023/10/04 09:53:11;;;;;;;;;;;;;;;14.52;100.00;102582.91;5036643;28;1451;-75
2023/10/04 09:55:36;;;;;;;;;;;;;;;14.58;100.00;102588.53;5049909;28;1898;-76
2023/10/04 09:58:03;;;;;;;;;;;;;;;14.63;100.00;102596.03;5048311;28;1161;-75
2023/10/04 10:00:29;;;;;;;;;;;;;;;14.67;100.00;102592.25;5048715;28;1173;-75
2023/10/04 10:02:57;;;;;;;;;;;;;;;14.72;99.99;102600.59;5046506;28;1434;-75
2023/10/04 10:05:29;;;;;;;;;;;;;;;14.73;99.96;102594.44;5044507;28;1193;-76
2023/10/04 10:07:55;;;;;;;;;;;;;;;14.78;100.00;102601.94;5028959;28;1179;-74
2023/10/04 10:10:25;;;;;;;;;;;;;;;14.82;99.26;102606.84;5035913;28;1460;-75
2023/10/04 10:12:51;;;;;;;;;;;;;;;14.86;100.00;102608.31;5049280;28;1151;-75
2023/10/04 10:15:18;;;;;;;;;;;;;;;14.93;99.20;102608.69;5048832;28;1894;-75
2023/10/04 10:17:45;;;;;;;;;;;;;;;14.98;99.18;102606.59;5036892;28;1529;-74
2023/10/04 10:20:11;;;;;;;;;;;;;;;15.06;98.71;102608.63;5052498;28;1197;-76
2023/10/04 10:23:02;;;;;;;;;;;;;;;15.16;98.53;102609.66;5044691;28;1153;-75
2023/10/04 10:25:29;;;;;;;;;;;;;;;15.24;98.03;102611.69;5048228;28;1121;-75
2023/10/04 10:27:57;;;;;;;;;;;;;;;15.29;97.67;102618.25;5045750;28;1337;-74
2023/10/04 10:30:23;;;;;;;;;;;;;;;15.38;96.78;102604.53;5047308;28;1284;-76
2023/10/04 10:32:55;;;;;;;;;;;;;;;15.38;96.38;102599.28;5027403;28;1204;-74
2023/10/04 10:35:40;;;;;;;;;;;;;;;15.45;95.86;102598.84;5030133;28;1957;-75
2023/10/04 10:38:28;;;;;;;;;;;;;;;15.46;95.03;102597.88;5048120;28;1142;-75
2023/10/04 10:40:54;;;;;;;;;;;;;;;15.51;94.78;102601.00;5040505;28;1097;-76
2023/10/04 10:43:19;;;;;;;;;;;;;;;15.54;94.91;102593.78;5029306;28;1347;-75
2023/10/04 10:45:44;;;;;;;;;;;;;;;15.68;94.31;102590.13;5048425;28;1241;-75
2023/10/04 10:48:13;;;;;;;;;;;;;;;15.75;93.59;102599.19;5059231;28;1053;-74
2023/10/04 10:50:39;;;;;;;;;;;;;;;15.77;94.53;102589.47;5047363;28;1132;-75
2023/10/04 10:53:05;;;;;;;;;;;;;;;15.83;93.19;102586.38;5052879;28;1116;-75
2023/10/04 10:55:32;;;;;;;;;;;;;;;15.85;93.68;102592.31;5035413;28;1984;-74
2023/10/04 10:57:57;;;;;;;;;;;;;;;15.90;92.14;102584.97;5033396;28;1488;-76
2023/10/04 11:00:23;;;;;;;;;;;;;;;15.91;92.14;102586.63;5052639;28;1079;-75
2023/10/04 11:02:53;;;;;;;;;;;;;;;15.91;92.04;102586.63;5051757;28;1122;-75
2023/10/04 11:05:20;;;;;;;;;;;;;;;15.94;91.18;102590.78;5035239;28;1503;-74
2023/10/04 11:07:46;;;;;;;;;;;;;;;15.91;91.44;102586.63;5048424;28;1187;-77
2023/10/04 11:10:13;;;;;;;;;;;;;;;15.92;91.15;102590.06;5050588;28;978;-75
2023/10/04 11:12:38;;;;;;;;;;;;;;;15.97;91.37;102581.88;5052537;28;1150;-75
2023/10/04 11:15:06;;;;;;;;;;;;;;;16.04;90.97;102585.69;5049808;28;1898;-76
2023/10/04 11:17:33;;;;;;;;;;;;;;;16.09;89.56;102583.53;5051733;28;1213;-76
2023/10/04 11:19:58;;;;;;;;;;;;;;;16.10;89.35;102579.97;5046803;28;1121;-76
2023/10/04 11:22:23;;;;;;;;;;;;;;;16.14;89.82;102579.63;5047088;28;1145;-76
2023/10/04 11:24:51;;;;;;;;;;;;;;;16.20;89.05;102566.06;5046304;28;1095;-75
2023/10/04 11:27:23;;;;;;;;;;;;;;;16.26;89.41;102575.22;5045481;28;1196;-74
2023/10/04 11:29:49;;;;;;;;;;;;;;;16.33;88.91;102568.53;5047321;28;1143;-75
2023/10/04 11:32:14;;;;;;;;;;;;;;;16.37;88.23;102567.34;5027777;28;1475;-75
2023/10/04 11:34:42;;;;;;;;;;;;;;;16.41;88.49;102560.94;5043444;28;1425;-74
2023/10/04 11:37:08;;;;;;;;;;;;;;;16.43;87.09;102556.41;5044827;28;1972;-75
2023/10/04 11:39:33;;;;;;;;;;;;;;;16.37;86.17;102567.34;5039967;28;1188;-75
2023/10/04 11:42:21;;;;;;;;;;;;;;;16.32;85.54;102553.78;5042244;28;1389;-75
2023/10/04 11:44:47;;;;;;;;;;;;;;;16.30;85.88;102560.09;5044659;28;1587;-74
2023/10/04 11:47:15;;;;;;;;;;;;;;;16.33;85.97;102550.22;5043553;28;1490;-74
2023/10/04 11:49:53;;;;;;;;;;;;;;;16.41;85.34;102547.00;5041650;28;1165;-74
2023/10/04 11:52:18;;;;;;;;;;;;;;;16.44;86.01;102542.34;5042759;28;1429;-75
2023/10/04 11:54:44;;;;;;;;;;;;;;;16.48;84.67;102542.94;5046742;28;1486;-75
2023/10/04 11:57:11;;;;;;;;;;;;;;;16.50;83.99;102540.19;5030990;28;1902;-75
2023/10/04 11:59:36;;;;;;;;;;;;;;;16.46;84.56;102535.22;5047258;28;1339;-75
2023/10/04 12:02:02;;;;;;;;;;;;;;;16.51;84.82;102536.59;5041043;28;1466;-74
2023/10/04 12:04:31;;;;;;;;;;;;;;;16.56;84.12;102531.84;5047496;28;1384;-74
2023/10/04 12:07:00;;;;;;;;;;;;;;;16.59;82.80;102535.06;5048912;28;1357;-74
2023/10/04 12:09:27;;;;;;;;;;;;;;;16.58;82.10;102529.94;5043067;28;1359;-74
2023/10/04 12:11:52;;;;;;;;;;;;;;;16.55;81.66;102532.81;5053221;28;1178;-76
2023/10/04 12:14:17;;;;;;;;;;;;;;;16.52;82.40;102527.81;5042728;28;1174;-75
2023/10/04 12:16:42;;;;;;;;;;;;;;;16.54;82.36;102531.16;5047766;28;1890;-76
2023/10/04 12:19:08;;;;;;;;;;;;;;;16.56;82.86;102529.22;5049507;28;1376;-76
2023/10/04 12:21:35;;;;;;;;;;;;;;;16.55;82.46;102538.03;5032649;28;1390;-75
2023/10/04 12:24:02;;;;;;;;;;;;;;;16.54;82.10;102531.16;5045414;28;1667;-74
2023/10/04 12:26:27;;;;;;;;;;;;;;;16.55;82.82;102527.56;5036615;28;1683;-74
2023/10/04 12:28:52;;;;;;;;;;;;;;;16.57;82.29;102525.63;5049163;28;1629;-75
2023/10/04 12:31:17;;;;;;;;;;;;;;;16.58;81.97;102527.34;5034735;28;1266;-75
2023/10/04 12:33:43;;;;;;;;;;;;;;;16.56;81.42;102527.44;5053444;28;1173;-75
2023/10/04 12:36:09;;;;;;;;;;;;;;;16.53;81.65;102521.63;5049070;28;1893;-75
2023/10/04 12:38:34;;;;;;;;;;;;;;;16.52;82.00;102527.81;5049606;28;1385;-76